createdAt,value
2018-09-20T00:02:41.204Z,17.36
2018-09-20T00:07:36.025Z,17.60
2018-09-20T00:12:30.801Z,17.61
2018-09-20T00:17:25.576Z,17.37
2018-09-20T00:22:20.445Z,17.19
2018-09-20T00:27:15.264Z,17.18
2018-09-20T00:32:10.045Z,17.24
2018-09-20T00:37:04.883Z,17.48
2018-09-20T00:41:59.621Z,17.36
2018-09-20T00:46:54.437Z,17.18
2018-09-20T00:51:49.249Z,17.05
2018-09-20T00:56:44.128Z,17.05
2018-09-20T01:01:38.953Z,16.87
2018-09-20T01:06:33.785Z,16.96
2018-09-20T01:11:28.652Z,17.01
2018-09-20T01:16:23.421Z,16.77
2018-09-20T01:21:18.298Z,16.81
2018-09-20T01:26:13.062Z,16.84
2018-09-20T01:31:07.900Z,16.94
2018-09-20T01:36:02.717Z,16.98
2018-09-20T01:40:57.553Z,16.87
2018-09-20T01:45:52.350Z,16.68
2018-09-20T01:50:47.156Z,16.79
2018-09-20T01:55:42.001Z,16.72
2018-09-20T02:00:36.799Z,16.71
2018-09-20T02:05:31.592Z,16.78
2018-09-20T02:10:26.403Z,16.59
2018-09-20T02:15:21.289Z,16.34
2018-09-20T02:20:16.053Z,16.35
2018-09-20T02:25:10.898Z,16.53
2018-09-20T02:30:05.796Z,16.47
2018-09-20T02:35:00.624Z,16.68
2018-09-20T02:39:55.413Z,16.59
2018-09-20T02:44:50.170Z,16.41
2018-09-20T02:49:45.081Z,16.33
2018-09-20T02:54:39.865Z,16.10
2018-09-20T02:59:34.645Z,16.11
2018-09-20T03:04:29.554Z,16.23
2018-09-20T03:09:24.341Z,16.32
2018-09-20T03:14:19.128Z,16.28
2018-09-20T03:19:13.928Z,16.39
2018-09-20T03:24:08.879Z,16.14
2018-09-20T03:29:03.763Z,16.16
2018-09-20T03:33:58.784Z,16.04
2018-09-20T03:38:53.669Z,16.06
2018-09-20T03:43:48.607Z,16.07
2018-09-20T03:48:43.505Z,15.90
2018-09-20T03:53:39.225Z,15.75
2018-09-20T03:58:34.128Z,15.71
2018-09-20T04:03:28.978Z,15.66
2018-09-20T04:08:23.873Z,15.70
2018-09-20T04:13:18.783Z,15.84
2018-09-20T04:18:13.675Z,16.06
2018-09-20T04:23:08.561Z,16.19
2018-09-20T04:28:03.355Z,16.22
2018-09-20T04:32:58.119Z,15.99
2018-09-20T04:37:52.937Z,15.92
2018-09-20T04:42:47.748Z,15.73
2018-09-20T04:47:42.501Z,15.58
2018-09-20T04:52:37.291Z,15.60
2018-09-20T04:57:32.130Z,15.61
2018-09-20T05:02:26.920Z,15.68
2018-09-20T05:07:21.729Z,15.78
2018-09-20T05:12:18.007Z,15.87
2018-09-20T05:17:12.798Z,15.72
2018-09-20T05:22:07.685Z,15.69
2018-09-20T05:27:02.595Z,15.73
2018-09-20T05:31:57.469Z,15.77
2018-09-20T05:36:52.469Z,15.79
2018-09-20T05:41:47.354Z,15.84
2018-09-20T05:46:42.790Z,16.14
2018-09-20T05:51:37.672Z,16.34
2018-09-20T05:56:33.027Z,16.54
2018-09-20T06:01:29.130Z,16.72
2018-09-20T06:06:24.053Z,16.83
2018-09-20T06:11:18.970Z,17.00
2018-09-20T06:16:13.973Z,17.17
2018-09-20T06:21:08.906Z,17.31
2018-09-20T06:26:03.827Z,17.44
2018-09-20T06:30:58.755Z,17.59
2018-09-20T06:35:53.754Z,17.61
2018-09-20T06:40:48.688Z,17.72
2018-09-20T06:45:44.142Z,17.86
2018-09-20T06:50:39.149Z,18.05
2018-09-20T06:55:34.135Z,18.13
2018-09-20T07:00:29.062Z,18.17
2018-09-20T07:05:23.998Z,18.39
2018-09-20T07:10:18.842Z,18.47
2018-09-20T07:15:13.765Z,18.69
2018-09-20T07:20:08.834Z,18.79
2018-09-20T07:25:03.773Z,18.83
2018-09-20T07:29:58.707Z,18.74
2018-09-20T07:34:53.643Z,19.19
2018-09-20T07:39:48.650Z,19.84
2018-09-20T07:44:43.614Z,20.01
2018-09-20T07:49:38.583Z,19.92
2018-09-20T07:54:33.491Z,20.31
2018-09-20T07:59:28.398Z,20.83
2018-09-20T08:04:26.347Z,21.05
2018-09-20T08:09:21.441Z,21.29
2018-09-20T08:14:16.313Z,21.57
2018-09-20T08:19:11.515Z,21.84
2018-09-20T08:24:06.670Z,22.27
2018-09-20T08:29:01.605Z,22.53
2018-09-20T08:33:56.623Z,22.66
2018-09-20T08:38:51.666Z,22.87
2018-09-20T08:43:46.581Z,23.01
2018-09-20T08:48:41.804Z,23.00
2018-09-20T08:53:36.793Z,23.18
2018-09-20T08:58:33.647Z,23.56
2018-09-20T09:03:28.596Z,23.68
2018-09-20T09:08:23.563Z,23.69
2018-09-20T09:13:18.407Z,23.50
2018-09-20T09:18:13.405Z,23.73
2018-09-20T09:23:08.321Z,24.02
2018-09-20T09:28:03.278Z,24.24
2018-09-20T09:32:58.205Z,24.08
2018-09-20T09:37:53.154Z,24.15
2018-09-20T09:42:48.130Z,24.13
2018-09-20T09:47:43.046Z,24.28
2018-09-20T09:52:38.037Z,24.26
2018-09-20T09:57:33.209Z,24.23
2018-09-20T10:02:28.162Z,24.26
2018-09-20T10:07:23.426Z,24.41
2018-09-20T10:12:18.418Z,24.30
2018-09-20T10:17:13.359Z,24.39
2018-09-20T10:22:08.377Z,24.17
2018-09-20T10:27:03.218Z,24.03
2018-09-20T10:31:58.203Z,24.06
2018-09-20T10:36:53.239Z,24.12
2018-09-20T10:41:48.314Z,24.29
2018-09-20T10:46:43.646Z,24.27
2018-09-20T10:51:38.658Z,24.18
2018-09-20T10:56:33.934Z,24.30
2018-09-20T11:01:28.854Z,24.36
2018-09-20T11:06:23.985Z,24.23
2018-09-20T11:11:19.090Z,24.47
2018-09-20T11:16:14.136Z,24.37
2018-09-20T11:21:09.313Z,24.01
2018-09-20T11:26:04.433Z,23.95
2018-09-20T11:30:59.395Z,24.34
2018-09-20T11:35:54.453Z,24.48
2018-09-20T11:40:49.369Z,24.49
2018-09-20T11:45:44.399Z,24.39
2018-09-20T11:50:39.641Z,24.46
2018-09-20T11:55:34.742Z,24.55
2018-09-20T12:00:29.735Z,24.85
2018-09-20T12:05:24.742Z,25.00
2018-09-20T12:10:20.110Z,25.03
2018-09-20T12:15:15.081Z,24.90
2018-09-20T12:20:10.015Z,24.73
2018-09-20T12:25:05.031Z,24.72
2018-09-20T12:30:00.063Z,24.59
2018-09-20T12:34:55.158Z,24.57
2018-09-20T12:39:50.094Z,24.64
2018-09-20T12:44:45.073Z,24.80
2018-09-20T12:49:40.413Z,24.68
2018-09-20T12:54:35.458Z,24.70
2018-09-20T12:59:30.403Z,24.63
2018-09-20T13:04:25.855Z,24.69
2018-09-20T13:09:20.762Z,24.82
2018-09-20T13:14:15.647Z,24.81
2018-09-20T13:19:10.614Z,24.74
2018-09-20T13:24:05.686Z,24.69
2018-09-20T13:29:00.633Z,24.65
2018-09-20T13:33:55.669Z,24.71
2018-09-20T13:38:50.686Z,24.79
2018-09-20T13:43:46.471Z,24.84
2018-09-20T13:48:41.461Z,25.04
2018-09-20T13:53:36.404Z,25.12
2018-09-20T13:58:31.358Z,25.11
2018-09-20T14:03:26.662Z,25.13
2018-09-20T14:08:21.581Z,25.22
2018-09-20T14:13:16.596Z,25.41
2018-09-20T14:18:11.626Z,25.34
2018-09-20T14:23:06.614Z,25.19
2018-09-20T14:28:01.522Z,25.36
2018-09-20T14:32:56.517Z,25.29
2018-09-20T14:37:51.566Z,25.32
2018-09-20T14:42:46.470Z,25.28
2018-09-20T14:47:41.539Z,25.19
2018-09-20T14:52:36.543Z,25.42
2018-09-20T14:57:31.431Z,25.27
2018-09-20T15:02:26.315Z,25.32
2018-09-20T15:07:21.619Z,25.23
2018-09-20T15:12:16.670Z,25.17
2018-09-20T15:17:11.630Z,25.24
2018-09-20T15:22:06.713Z,25.22
2018-09-20T15:27:01.661Z,25.26
2018-09-20T15:31:56.549Z,25.37
2018-09-20T15:36:51.525Z,25.29
2018-09-20T15:41:46.450Z,25.30
2018-09-20T15:46:41.387Z,25.27
2018-09-20T15:51:36.433Z,25.13
2018-09-20T15:56:31.463Z,25.16
2018-09-20T16:01:26.402Z,25.03
2018-09-20T16:06:21.443Z,24.98
2018-09-20T16:11:16.357Z,24.85
2018-09-20T16:16:11.326Z,24.80
2018-09-20T16:21:06.315Z,24.69
2018-09-20T16:26:01.301Z,24.66
2018-09-20T16:31:16.110Z,24.61
2018-09-20T16:36:25.641Z,24.52
2018-09-20T16:41:27.345Z,24.37
2018-09-20T16:46:22.235Z,24.11
2018-09-20T16:51:17.383Z,23.81
2018-09-20T16:56:16.989Z,23.58
2018-09-20T17:01:11.928Z,23.33
2018-09-20T17:06:06.796Z,22.99
2018-09-20T17:11:01.615Z,22.74
2018-09-20T17:15:56.515Z,22.54
2018-09-20T17:20:51.475Z,22.38
2018-09-20T17:25:46.462Z,22.21
2018-09-20T17:30:41.331Z,22.02
2018-09-20T17:35:36.852Z,21.84
2018-09-20T17:40:34.182Z,21.65
2018-09-20T17:45:29.373Z,21.68
2018-09-20T17:50:24.164Z,21.69
2018-09-20T17:55:19.654Z,21.66
2018-09-20T18:00:14.499Z,21.64
2018-09-20T18:05:09.510Z,21.47
2018-09-20T18:10:04.513Z,21.44
2018-09-20T18:14:59.551Z,21.42
2018-09-20T18:19:54.471Z,21.34
2018-09-20T18:24:49.390Z,21.26
2018-09-20T18:29:44.298Z,21.15
2018-09-20T18:34:39.191Z,21.05
2018-09-20T18:39:34.146Z,20.99
2018-09-20T18:44:29.092Z,20.95
2018-09-20T18:49:24.024Z,20.79
2018-09-20T18:54:18.972Z,20.58
2018-09-20T18:59:13.873Z,20.64
2018-09-20T19:04:08.792Z,20.62
2018-09-20T19:09:03.963Z,20.62
2018-09-20T19:13:58.851Z,20.44
2018-09-20T19:18:53.790Z,20.49
2018-09-20T19:23:48.785Z,20.38
2018-09-20T19:28:43.595Z,20.25
2018-09-20T19:33:38.577Z,20.07
2018-09-20T19:38:33.461Z,19.91
2018-09-20T19:43:28.333Z,19.78
2018-09-20T19:48:23.198Z,19.76
2018-09-20T19:53:18.680Z,19.68
2018-09-20T19:58:13.557Z,19.60
2018-09-20T20:03:08.632Z,19.54
2018-09-20T20:08:03.610Z,19.43
2018-09-20T20:12:58.704Z,19.51
2018-09-20T20:17:53.622Z,19.42
2018-09-20T20:22:48.568Z,19.03
2018-09-20T20:27:44.057Z,19.29
2018-09-20T20:32:40.132Z,19.18
2018-09-20T20:37:35.012Z,19.19
2018-09-20T20:42:29.941Z,19.04
2018-09-20T20:47:24.830Z,18.81
2018-09-20T20:52:19.826Z,18.57
2018-09-20T20:57:14.796Z,18.84
2018-09-20T21:02:09.778Z,18.69
2018-09-20T21:07:04.697Z,18.63
2018-09-20T21:11:59.635Z,18.61
2018-09-20T21:16:54.914Z,18.39
2018-09-20T21:21:49.827Z,18.09
2018-09-20T21:27:17.750Z,18.45
2018-09-20T21:32:12.662Z,18.30
2018-09-20T21:37:07.677Z,18.33
2018-09-20T21:42:02.546Z,17.97
2018-09-20T21:46:57.444Z,18.31
2018-09-20T21:51:52.344Z,18.43
2018-09-20T21:56:47.318Z,18.06
2018-09-20T22:01:48.001Z,18.13
2018-09-20T22:06:42.959Z,17.91
2018-09-20T22:11:38.474Z,18.14
2018-09-20T22:16:33.398Z,17.77
2018-09-20T22:21:28.405Z,17.85
2018-09-20T22:26:23.412Z,17.82
2018-09-20T22:31:18.729Z,17.64
2018-09-20T22:36:13.656Z,17.46
2018-09-20T22:41:08.628Z,17.36
2018-09-20T22:46:03.639Z,17.36
2018-09-20T22:51:01.757Z,17.54
2018-09-20T22:55:56.695Z,17.59
2018-09-20T23:00:51.717Z,17.51
2018-09-20T23:05:47.581Z,17.35
2018-09-20T23:10:42.516Z,17.26
2018-09-20T23:15:38.341Z,17.01
2018-09-20T23:20:37.547Z,17.02
2018-09-20T23:25:32.486Z,17.02
2018-09-20T23:30:27.374Z,17.07
2018-09-20T23:35:24.452Z,17.12
2018-09-20T23:40:19.384Z,17.07
2018-09-20T23:45:16.109Z,17.17
2018-09-20T23:50:11.471Z,17.08
2018-09-20T23:55:07.563Z,16.82
